Altamonte Springs, Florida
Current Conditions -  °F | °C
As of 1:53 AM on Saturday 29 Nov 2014 (Local Time) from KORL Reporting Station
Clear Clear  
Wind Chill: 44°   Ceiling: Unl
Heat Index: 47°   Visibility: 10mi
Dew Point: 41°   Wind: 6mph
Humidity: 80%   Direction: 340°NNW
Pressure: 30.26"   Gusts: NA
Location:  28.67°N, 81.36°W
Report Text: KORL 290653Z AUTO 34005KT 10SM CLR 08/05 A3026 RMK AO2 SLP253 T00830050
Loading
Personal Weather Stations






























Interactive Weather Map New forecast layout! Learn more

10-Day Weather Forecast

Advertisements
Track Severe Weather on mobile